^^
Station Historical Data
 
Daily Summary for June 18, 2018 Units:  Both    English   Metric
« Previous Day
Next Day »
Daily Weekly Monthly Yearly Custom
  Current: High: Low: Average:
Temperature: 82.7 °F /  28.2 °C TemperatureF °F /  -17.8 °C 63.8 °F /  17.7 °C 84.6 °F /  29.2 °C
Dew Point: 37.5 °F /  3.1 °C DewpointF °F /  -17.8 °C 30.3 °F /  -0.9 °C 37 °F /  2.8 °C
Humidity: 20% Humidity% 9% 20%
Wind Speed: 0.0mph /  0km/h WindSpeedMPHmph /  0km/h - 0.4mph /  0.6km/h
Wind Gust: 0.0mph /  0km/h WindSpeedGustMPHmph /  0km/h - -
WindCalm - - East
Pressure: 29.69 in /  1005.3 hPa PressureIn in /  0 hPa 29.67 in /  1004.6 hPa -
Precipitation: 0.00 in /  0 mm      
Historical Graphs
 
 
Tabular Data for June 18, 2018
Time Temperature Dew Point Pressure Wind Wind Speed Wind Gust Humidity Rainfall Rate (Hourly) solar Conditions
TemperatureF °F /  -17.8 °C DewpointF °F /  -17.8 °C PressureInin /  0hPa Calm     Humidity% HourlyPrecipInin /  0mm SoftwareType W/m2 Conditions
00:04 77.7 °F /  25.4 °C 32.1 °F /  0.1 °C 29.69in /  1005.3hPa Calm     19% 0.00in /  0mm WeatherDisplay:10.37 W/m2 CLR
00:09 77.3 °F /  25.2 °C 34.3 °F /  1.3 °C 29.69in /  1005.3hPa Calm     21% 0.00in /  0mm WeatherDisplay:10.37 W/m2 CLR
00:14 76.4 °F /  24.7 °C 33.6 °F /  0.9 °C 29.69in /  1005.3hPa Calm     21% 0.00in /  0mm WeatherDisplay:10.37 W/m2 CLR
00:19 76.2 °F /  24.6 °C 33.4 °F /  0.8 °C 29.69in /  1005.3hPa Calm     21% 0.00in /  0mm WeatherDisplay:10.37 W/m2 CLR
00:24 76.1 °F /  24.5 °C 33.3 °F /  0.7 °C 29.69in /  1005.3hPa Calm     21% 0.00in /  0mm WeatherDisplay:10.37 W/m2 CLR
00:29 76.1 °F /  24.5 °C 33.3 °F /  0.7 °C 29.69in /  1005.3hPa Calm     21% 0.00in /  0mm WeatherDisplay:10.37 W/m2 CLR
00:34 75.7 °F /  24.3 °C 33.0 °F /  0.6 °C 29.69in /  1005.3hPa Calm     21% 0.00in /  0mm WeatherDisplay:10.37 W/m2 CLR
00:39 75.7 °F /  24.3 °C 33.0 °F /  0.6 °C 29.69in /  1005.3hPa Calm     21% 0.00in /  0mm WeatherDisplay:10.37 W/m2 CLR
00:44 75.6 °F /  24.2 °C 34.1 °F /  1.2 °C 29.70in /  1005.6hPa Calm     22% 0.00in /  0mm WeatherDisplay:10.37 W/m2 CLR
00:49 75.1 °F /  23.9 °C 33.6 °F /  0.9 °C 29.70in /  1005.6hPa Calm     22% 0.00in /  0mm WeatherDisplay:10.37 W/m2 CLR
00:54 74.7 °F /  23.7 °C 34.4 °F /  1.3 °C 29.70in /  1005.6hPa Calm     23% 0.00in /  0mm WeatherDisplay:10.37 W/m2 CLR
00:59 74.1 °F /  23.4 °C 33.9 °F /  1.1 °C 29.70in /  1005.6hPa Calm     23% 0.00in /  0mm WeatherDisplay:10.37 W/m2 CLR
01:04 73.8 °F /  23.2 °C 33.7 °F /  0.9 °C 29.70in /  1005.6hPa Calm     23% 0.00in /  0mm WeatherDisplay:10.37 W/m2 CLR
01:09 73.6 °F /  23.1 °C 34.6 °F /  1.4 °C 29.70in /  1005.6hPa Calm     24% 0.00in /  0mm WeatherDisplay:10.37 W/m2 CLR
01:14 73.2 °F /  22.9 °C 34.2 °F /  1.2 °C 29.71in /  1006hPa Calm     24% 0.00in /  0mm WeatherDisplay:10.37 W/m2 CLR
01:19 72.7 °F /  22.6 °C 34.8 °F /  1.6 °C 29.71in /  1006hPa Calm     25% 0.00in /  0mm WeatherDisplay:10.37 W/m2 CLR
01:24 72.4 °F /  22.4 °C 34.6 °F /  1.4 °C 29.71in /  1006hPa Calm     25% 0.00in /  0mm WeatherDisplay:10.37 W/m2 CLR
01:29 72.7 °F /  22.6 °C 34.8 °F /  1.6 °C 29.71in /  1006hPa Calm     25% 0.00in /  0mm WeatherDisplay:10.37 W/m2 CLR
01:34 73.2 °F /  22.9 °C 33.2 °F /  0.7 °C 29.71in /  1006hPa Calm     23% 0.00in /  0mm WeatherDisplay:10.37 W/m2 CLR
01:39 73.6 °F /  23.1 °C 33.5 °F /  0.8 °C 29.71in /  1006hPa Calm     23% 0.00in /  0mm WeatherDisplay:10.37 W/m2 CLR
01:44 73.8 °F /  23.2 °C 33.7 °F /  0.9 °C 29.71in /  1006hPa Calm     23% 0.00in /  0mm WeatherDisplay:10.37 W/m2 CLR
01:49 73.8 °F /  23.2 °C 33.7 °F /  0.9 °C 29.71in /  1006hPa Calm     23% 0.00in /  0mm WeatherDisplay:10.37 W/m2 CLR
01:54 73.1 °F /  22.8 °C 34.1 °F /  1.2 °C 29.71in /  1006hPa Calm     24% 0.00in /  0mm WeatherDisplay:10.37 W/m2 CLR
01:59 72.3 °F /  22.4 °C 33.5 °F /  0.8 °C 29.71in /  1006hPa Calm     24% 0.00in /  0mm WeatherDisplay:10.37 W/m2 CLR
02:04 72.3 °F /  22.4 °C 33.5 °F /  0.8 °C 29.71in /  1006hPa Calm     24% 0.00in /  0mm WeatherDisplay:10.37 W/m2 CLR
02:09 72.6 °F /  22.6 °C 32.7 °F /  0.4 °C 29.71in /  1006hPa Calm     23% 0.00in /  0mm WeatherDisplay:10.37 W/m2 CLR
02:14 72.8 °F /  22.7 °C 32.8 °F /  0.4 °C 29.71in /  1006hPa Calm     23% 0.00in /  0mm WeatherDisplay:10.37 W/m2 CLR
02:19 72.6 °F /  22.6 °C 32.7 °F /  0.4 °C 29.71in /  1006hPa Calm     23% 0.00in /  0mm WeatherDisplay:10.37 W/m2 CLR
02:24 72.3 °F /  22.4 °C 33.5 °F /  0.8 °C 29.71in /  1006hPa Calm     24% 0.00in /  0mm WeatherDisplay:10.37 W/m2 CLR
02:29 71.7 °F /  22.1 °C 33.0 °F /  0.6 °C 29.71in /  1006hPa Calm     24% 0.00in /  0mm WeatherDisplay:10.37 W/m2 CLR
02:34 71.5 °F /  21.9 °C 34.8 °F /  1.6 °C 29.71in /  1006hPa Calm     26% 0.00in /  0mm WeatherDisplay:10.37 W/m2 CLR
02:39 70.9 °F /  21.6 °C 34.3 °F /  1.3 °C 29.71in /  1006hPa Calm     26% 0.00in /  0mm WeatherDisplay:10.37 W/m2 CLR
02:44 70.4 °F /  21.3 °C 34.8 °F /  1.6 °C 29.72in /  1006.3hPa Calm     27% 0.00in /  0mm WeatherDisplay:10.37 W/m2 CLR
02:49 70.1 °F /  21.2 °C 33.6 °F /  0.9 °C 29.72in /  1006.3hPa Calm     26% 0.00in /  0mm WeatherDisplay:10.37 W/m2 CLR
02:54 70.3 °F /  21.3 °C 34.7 °F /  1.5 °C 29.72in /  1006.3hPa Calm     27% 0.00in /  0mm WeatherDisplay:10.37 W/m2 CLR
02:59 70.3 °F /  21.3 °C 33.8 °F /  1 °C 29.72in /  1006.3hPa Calm     26% 0.00in /  0mm WeatherDisplay:10.37 W/m2 CLR
03:04 70.2 °F /  21.2 °C 32.7 °F /  0.4 °C 29.72in /  1006.3hPa Calm     25% 0.00in /  0mm WeatherDisplay:10.37 W/m2 CLR
03:09 70.2 °F /  21.2 °C 34.6 °F /  1.4 °C 29.72in /  1006.3hPa Calm     27% 0.00in /  0mm WeatherDisplay:10.37 W/m2 CLR
03:14 69.4 °F /  20.8 °C 34.9 °F /  1.6 °C 29.73in /  1006.7hPa Calm     28% 0.00in /  0mm WeatherDisplay:10.37 W/m2 CLR
03:19 69.1 °F /  20.6 °C 34.6 °F /  1.4 °C 29.73in /  1006.7hPa Calm     28% 0.00in /  0mm WeatherDisplay:10.37 W/m2 CLR
03:24 69.1 °F /  20.6 °C 33.7 °F /  0.9 °C 29.73in /  1006.7hPa Calm     27% 0.00in /  0mm WeatherDisplay:10.37 W/m2 CLR
03:29 68.6 °F /  20.3 °C 35.1 °F /  1.7 °C 29.73in /  1006.7hPa Calm     29% 0.00in /  0mm WeatherDisplay:10.37 W/m2 CLR
03:34 68.2 °F /  20.1 °C 34.7 °F /  1.5 °C 29.73in /  1006.7hPa Calm     29% 0.00in /  0mm WeatherDisplay:10.37 W/m2 CLR
03:39 68.1 °F /  20.1 °C 34.6 °F /  1.4 °C 29.73in /  1006.7hPa Calm     29% 0.00in /  0mm WeatherDisplay:10.37 W/m2 CLR
03:44 68.3 °F /  20.2 °C 34.8 °F /  1.6 °C 29.73in /  1006.7hPa Calm     29% 0.00in /  0mm WeatherDisplay:10.37 W/m2 CLR
03:49 68.0 °F /  20 °C 36.2 °F /  2.3 °C 29.73in /  1006.7hPa Calm     31% 0.00in /  0mm WeatherDisplay:10.37 W/m2 CLR
03:54 67.6 °F /  19.8 °C 35.9 °F /  2.2 °C 29.73in /  1006.7hPa Calm     31% 0.00in /  0mm WeatherDisplay:10.37 W/m2 CLR
03:59 67.4 °F /  19.7 °C 36.5 °F /  2.5 °C 29.74in /  1007hPa Calm     32% 0.00in /  0mm WeatherDisplay:10.37 W/m2 CLR
04:04 67.4 °F /  19.7 °C 36.5 °F /  2.5 °C 29.74in /  1007hPa Calm     32% 0.00in /  0mm WeatherDisplay:10.37 W/m2 CLR
04:09 67.2 °F /  19.6 °C 36.3 °F /  2.4 °C 29.74in /  1007hPa Calm     32% 0.00in /  0mm WeatherDisplay:10.37 W/m2 CLR
04:14 66.8 °F /  19.3 °C 36.8 °F /  2.7 °C 29.74in /  1007hPa Calm     33% 0.00in /  0mm WeatherDisplay:10.37 W/m2 CLR
04:19 66.5 °F /  19.2 °C 36.5 °F /  2.5 °C 29.74in /  1007hPa Calm     33% 0.00in /  0mm WeatherDisplay:10.37 W/m2 CLR
04:24 66.1 °F /  18.9 °C 36.9 °F /  2.7 °C 29.74in /  1007hPa Calm     34% 0.00in /  0mm WeatherDisplay:10.37 W/m2 CLR
04:29 66.1 °F /  18.9 °C 36.1 °F /  2.3 °C 29.74in /  1007hPa Calm     33% 0.00in /  0mm WeatherDisplay:10.37 W/m2 CLR
04:34 66.0 °F /  18.9 °C 36.1 °F /  2.3 °C 29.74in /  1007hPa Calm     33% 0.00in /  0mm WeatherDisplay:10.37 W/m2 CLR
04:39 65.8 °F /  18.8 °C 35.9 °F /  2.2 °C 29.74in /  1007hPa Calm     33% 0.00in /  0mm WeatherDisplay:10.37 W/m2 CLR
04:44 65.4 °F /  18.6 °C 36.3 °F /  2.4 °C 29.75in /  1007.3hPa Calm     34% 0.00in /  0mm WeatherDisplay:10.37 W/m2 CLR
04:49 65.3 °F /  18.5 °C 36.2 °F /  2.3 °C 29.75in /  1007.3hPa Calm     34% 0.00in /  0mm WeatherDisplay:10.37 W/m2 CLR
04:54 65.2 °F /  18.4 °C 36.1 °F /  2.3 °C 29.75in /  1007.3hPa Calm     34% 0.00in /  0mm WeatherDisplay:10.37 W/m2 CLR
04:59 65.1 °F /  18.4 °C 36.0 °F /  2.2 °C 29.75in /  1007.3hPa Calm     34% 0.00in /  0mm WeatherDisplay:10.37 W/m2 CLR
05:04 65.2 °F /  18.4 °C 36.1 °F /  2.3 °C 29.75in /  1007.3hPa Calm     34% 0.00in /  0mm WeatherDisplay:10.37 W/m2 CLR
05:09 65.3 °F /  18.5 °C 36.2 °F /  2.3 °C 29.75in /  1007.3hPa Calm     34% 0.00in /  0mm WeatherDisplay:10.37 W/m2 CLR
05:14 64.8 °F /  18.2 °C 37.2 °F /  2.9 °C 29.75in /  1007.3hPa Calm     36% 0.00in /  0mm WeatherDisplay:10.37 W/m2 CLR
05:19 64.4 °F /  18 °C 36.8 °F /  2.7 °C 29.75in /  1007.3hPa Calm     36% 0.00in /  0mm WeatherDisplay:10.37 W/m2 CLR
05:24 64.1 °F /  17.8 °C 36.6 °F /  2.6 °C 29.75in /  1007.3hPa Calm     36% 0.00in /  0mm WeatherDisplay:10.37 W/m2 CLR
05:29 64.0 °F /  17.8 °C 36.5 °F /  2.5 °C 29.76in /  1007.7hPa Calm     36% 0.00in /  0mm WeatherDisplay:10.37 W/m2 CLR
05:34 63.9 °F /  17.7 °C 37.1 °F /  2.8 °C 29.76in /  1007.7hPa Calm     37% 0.00in /  0mm WeatherDisplay:10.37 W/m2 CLR
05:39 63.8 °F /  17.7 °C 36.3 °F /  2.4 °C 29.76in /  1007.7hPa Calm     36% 0.00in /  0mm WeatherDisplay:10.37 W/m2 CLR
05:44 63.8 °F /  17.7 °C 35.6 °F /  2 °C 29.77in /  1008hPa Calm     35% 0.00in /  0mm WeatherDisplay:10.37 W/m2 CLR
05:49 64.1 °F /  17.8 °C 38.0 °F /  3.3 °C 29.77in /  1008hPa Calm     38% 0.00in /  0mm WeatherDisplay:10.37 W/m2 CLR
05:54 64.1 °F /  17.8 °C 39.3 °F /  4.1 °C 29.77in /  1008hPa Calm     40% 0.00in /  0mm WeatherDisplay:10.37 W/m2 CLR
05:59 64.4 °F /  18 °C 41.4 °F /  5.2 °C 29.77in /  1008hPa Calm     43% 0.00in /  0mm WeatherDisplay:10.37 W/m2 CLR
06:04 64.8 °F /  18.2 °C 41.8 °F /  5.4 °C 29.77in /  1008hPa Calm     43% 0.00in /  0mm WeatherDisplay:10.37 W/m2 CLR
06:09 65.1 °F /  18.4 °C 42.6 °F /  5.9 °C 29.77in /  1008hPa Calm     44% 0.00in /  0mm WeatherDisplay:10.37 W/m2 CLR
06:14 65.7 °F /  18.7 °C 41.3 °F /  5.2 °C 29.78in /  1008.4hPa Calm     41% 0.00in /  0mm WeatherDisplay:10.37 W/m2 CLR
06:19 66.1 °F /  18.9 °C 42.3 °F /  5.7 °C 29.78in /  1008.4hPa Calm     42% 0.00in /  0mm WeatherDisplay:10.37 W/m2 CLR
06:24 66.5 °F /  19.2 °C 42.1 °F /  5.6 °C 29.78in /  1008.4hPa Calm     41% 0.00in /  0mm WeatherDisplay:10.37 W/m2 CLR
06:29 67.0 °F /  19.4 °C 43.1 °F /  6.2 °C 29.78in /  1008.4hPa Calm     42% 0.00in /  0mm WeatherDisplay:10.37 W/m2 CLR
06:34 67.4 °F /  19.7 °C 42.2 °F /  5.7 °C 29.78in /  1008.4hPa Calm     40% 0.00in /  0mm WeatherDisplay:10.37 W/m2 CLR
06:39 68.4 °F /  20.2 °C 41.8 °F /  5.4 °C 29.78in /  1008.4hPa Calm     38% 0.00in /  0mm WeatherDisplay:10.37 W/m2 CLR
06:44 69.1 °F /  20.6 °C 43.1 °F /  6.2 °C 29.78in /  1008.4hPa Calm     39% 0.00in /  0mm WeatherDisplay:10.37 W/m2 CLR
06:49 69.6 °F /  20.9 °C 44.2 °F /  6.8 °C 29.78in /  1008.4hPa Calm     40% 0.00in /  0mm WeatherDisplay:10.37 W/m2 CLR
06:54 70.4 °F /  21.3 °C 43.6 °F /  6.4 °C 29.78in /  1008.4hPa Calm     38% 0.00in /  0mm WeatherDisplay:10.37 W/m2 CLR
06:59 71.0 °F /  21.7 °C 43.4 °F /  6.3 °C 29.78in /  1008.4hPa Calm     37% 0.00in /  0mm WeatherDisplay:10.37 W/m2 CLR
07:04 72.1 °F /  22.3 °C 40.6 °F /  4.8 °C 29.78in /  1008.4hPa Calm     32% 0.00in /  0mm WeatherDisplay:10.37 W/m2 CLR
07:09 73.1 °F /  22.8 °C 41.5 °F /  5.3 °C 29.78in /  1008.4hPa Calm     32% 0.00in /  0mm WeatherDisplay:10.37 W/m2 CLR
07:14 73.4 °F /  23 °C 41.7 °F /  5.4 °C 29.78in /  1008.4hPa Calm     32% 0.00in /  0mm WeatherDisplay:10.37 W/m2 CLR
07:19 74.1 °F /  23.4 °C 40.7 °F /  4.8 °C 29.78in /  1008.4hPa Calm     30% 0.00in /  0mm WeatherDisplay:10.37 W/m2 CLR
07:24 74.6 °F /  23.7 °C 41.1 °F /  5.1 °C 29.78in /  1008.4hPa Calm     30% 0.00in /  0mm WeatherDisplay:10.37 W/m2 CLR
07:29 75.1 °F /  23.9 °C 42.4 °F /  5.8 °C 29.78in /  1008.4hPa Calm     31% 0.00in /  0mm WeatherDisplay:10.37 W/m2 CLR
07:34 75.4 °F /  24.1 °C 40.0 °F /  4.4 °C 29.78in /  1008.4hPa Calm     28% 0.00in /  0mm WeatherDisplay:10.37 W/m2 CLR
07:39 75.9 °F /  24.4 °C 40.4 °F /  4.7 °C 29.78in /  1008.4hPa Calm     28% 0.00in /  0mm WeatherDisplay:10.37 W/m2 CLR
07:44 76.7 °F /  24.8 °C 40.2 °F /  4.6 °C 29.79in /  1008.7hPa Calm     27% 0.00in /  0mm WeatherDisplay:10.37 W/m2 CLR
07:49 77.4 °F /  25.2 °C 38.8 °F /  3.8 °C 29.79in /  1008.7hPa Calm     25% 0.00in /  0mm WeatherDisplay:10.37 W/m2 CLR
07:54 77.8 °F /  25.4 °C 41.1 °F /  5.1 °C 29.79in /  1008.7hPa Calm     27% 0.00in /  0mm WeatherDisplay:10.37 W/m2 CLR
07:59 78.4 °F /  25.8 °C 40.7 °F /  4.8 °C 29.79in /  1008.7hPa Calm     26% 0.00in /  0mm WeatherDisplay:10.37 W/m2 CLR
08:04 79.2 °F /  26.2 °C 40.3 °F /  4.6 °C 29.79in /  1008.7hPa Calm     25% 0.00in /  0mm WeatherDisplay:10.37 W/m2 CLR
08:09 80.0 °F /  26.7 °C 41.0 °F /  5 °C 29.79in /  1008.7hPa Calm     25% 0.00in /  0mm WeatherDisplay:10.37 W/m2 CLR
08:14 80.0 °F /  26.7 °C 41.0 °F /  5 °C 29.79in /  1008.7hPa Calm     25% 0.00in /  0mm WeatherDisplay:10.37 W/m2 CLR
08:19 80.3 °F /  26.8 °C 40.2 °F /  4.6 °C 29.79in /  1008.7hPa Calm     24% 0.00in /  0mm WeatherDisplay:10.37 W/m2 CLR
08:24 81.1 °F /  27.3 °C 40.9 °F /  4.9 °C 29.79in /  1008.7hPa Calm     24% 0.00in /  0mm WeatherDisplay:10.37 W/m2 CLR
08:29 81.6 °F /  27.6 °C 40.2 °F /  4.6 °C 29.79in /  1008.7hPa Calm     23% 0.00in /  0mm WeatherDisplay:10.37 W/m2 CLR
08:34 82.0 °F /  27.8 °C 40.5 °F /  4.7 °C 29.79in /  1008.7hPa Calm     23% 0.00in /  0mm WeatherDisplay:10.37 W/m2 CLR
08:39 82.1 °F /  27.8 °C 39.5 °F /  4.2 °C 29.79in /  1008.7hPa Calm     22% 0.00in /  0mm WeatherDisplay:10.37 W/m2 CLR
08:44 82.8 °F /  28.2 °C 41.2 °F /  5.1 °C 29.79in /  1008.7hPa Calm     23% 0.00in /  0mm WeatherDisplay:10.37 W/m2 CLR
08:49 83.6 °F /  28.7 °C 40.7 °F /  4.8 °C 29.79in /  1008.7hPa Calm     22% 0.00in /  0mm WeatherDisplay:10.37 W/m2 CLR
08:54 84.1 °F /  28.9 °C 41.1 °F /  5.1 °C 29.79in /  1008.7hPa Calm     22% 0.00in /  0mm WeatherDisplay:10.37 W/m2 CLR
08:59 83.9 °F /  28.8 °C 42.1 °F /  5.6 °C 29.79in /  1008.7hPa Calm     23% 0.00in /  0mm WeatherDisplay:10.37 W/m2 CLR
09:04 84.0 °F /  28.9 °C 39.9 °F /  4.4 °C 29.79in /  1008.7hPa Calm     21% 0.00in /  0mm WeatherDisplay:10.37 W/m2 CLR
09:09 84.2 °F /  29 °C 42.4 °F /  5.8 °C 29.79in /  1008.7hPa Calm     23% 0.00in /  0mm WeatherDisplay:10.37 W/m2 CLR
09:14 84.8 °F /  29.3 °C 41.7 °F /  5.4 °C 29.79in /  1008.7hPa Calm     22% 0.00in /  0mm WeatherDisplay:10.37 W/m2 CLR
09:19 85.1 °F /  29.5 °C 42.0 °F /  5.6 °C 29.79in /  1008.7hPa Calm     22% 0.00in /  0mm WeatherDisplay:10.37 W/m2 CLR
09:24 85.6 °F /  29.8 °C 43.5 °F /  6.4 °C 29.79in /  1008.7hPa Calm     23% 0.00in /  0mm WeatherDisplay:10.37 W/m2 CLR
09:29 85.4 °F /  29.7 °C 42.2 °F /  5.7 °C 29.78in /  1008.4hPa Calm     22% 0.00in /  0mm WeatherDisplay:10.37 W/m2 CLR
09:34 86.4 °F /  30.2 °C 39.3 °F /  4.1 °C 29.78in /  1008.4hPa Calm     19% 0.00in /  0mm WeatherDisplay:10.37 W/m2 CLR
09:39 87.2 °F /  30.7 °C 42.5 °F /  5.8 °C 29.78in /  1008.4hPa Calm     21% 0.00in /  0mm WeatherDisplay:10.37 W/m2 CLR
09:44 87.5 °F /  30.8 °C 42.8 °F /  6 °C 29.78in /  1008.4hPa Calm     21% 0.00in /  0mm WeatherDisplay:10.37 W/m2 CLR
09:49 87.4 °F /  30.8 °C 41.4 °F /  5.2 °C 29.78in /  1008.4hPa Calm     20% 0.00in /  0mm WeatherDisplay:10.37 W/m2 CLR
09:54 87.6 °F /  30.9 °C 41.6 °F /  5.3 °C 29.78in /  1008.4hPa Calm     20% 0.00in /  0mm WeatherDisplay:10.37 W/m2 CLR
09:59 87.5 °F /  30.8 °C 41.5 °F /  5.3 °C 29.78in /  1008.4hPa Calm     20% 0.00in /  0mm WeatherDisplay:10.37 W/m2 CLR
10:04 87.7 °F /  30.9 °C 42.9 °F /  6.1 °C 29.78in /  1008.4hPa Calm     21% 0.00in /  0mm WeatherDisplay:10.37 W/m2 CLR
10:09 88.1 °F /  31.2 °C 42.0 °F /  5.6 °C 29.78in /  1008.4hPa Calm     20% 0.00in /  0mm WeatherDisplay:10.37 W/m2 CLR
10:14 88.7 °F /  31.5 °C 39.7 °F /  4.3 °C 29.78in /  1008.4hPa Calm     18% 0.00in /  0mm WeatherDisplay:10.37 W/m2 CLR
10:19 89.1 °F /  31.7 °C 40.1 °F /  4.5 °C 29.78in /  1008.4hPa Calm     18% 0.00in /  0mm WeatherDisplay:10.37 W/m2 CLR
10:24 89.6 °F /  32 °C 39.0 °F /  3.9 °C 29.78in /  1008.4hPa Calm     17% 0.00in /  0mm WeatherDisplay:10.37 W/m2 CLR
10:29 90.1 °F /  32.3 °C 40.9 °F /  4.9 °C 29.78in /  1008.4hPa Calm     18% 0.00in /  0mm WeatherDisplay:10.37 W/m2 CLR
10:34 90.4 °F /  32.4 °C 43.9 °F /  6.6 °C 29.78in /  1008.4hPa Calm     20% 0.00in /  0mm WeatherDisplay:10.37 W/m2 CLR
10:39 90.9 °F /  32.7 °C 40.1 °F /  4.5 °C 29.78in /  1008.4hPa Calm     17% 0.00in /  0mm WeatherDisplay:10.37 W/m2 CLR
10:44 91.2 °F /  32.9 °C 41.8 °F /  5.4 °C 29.78in /  1008.4hPa Calm     18% 0.00in /  0mm WeatherDisplay:10.37 W/m2 CLR
10:49 90.7 °F /  32.6 °C 39.9 °F /  4.4 °C 29.78in /  1008.4hPa Calm     17% 0.00in /  0mm WeatherDisplay:10.37 W/m2 CLR
10:54 91.8 °F /  33.2 °C 40.8 °F /  4.9 °C 29.78in /  1008.4hPa Calm     17% 0.00in /  0mm WeatherDisplay:10.37 W/m2 CLR
10:59 92.3 °F /  33.5 °C 42.7 °F /  5.9 °C 29.77in /  1008hPa Calm     18% 0.00in /  0mm WeatherDisplay:10.37 W/m2 CLR
11:04 92.8 °F /  33.8 °C 41.6 °F /  5.3 °C 29.77in /  1008hPa Calm     17% 0.00in /  0mm WeatherDisplay:10.37 W/m2 CLR
11:09 92.8 °F /  33.8 °C 40.0 °F /  4.4 °C 29.77in /  1008hPa Calm     16% 0.00in /  0mm WeatherDisplay:10.37 W/m2 CLR
11:14 92.7 °F /  33.7 °C 43.0 °F /  6.1 °C 29.77in /  1008hPa Calm     18% 0.00in /  0mm WeatherDisplay:10.37 W/m2 CLR
11:19 93.6 °F /  34.2 °C 42.2 °F /  5.7 °C 29.77in /  1008hPa Calm     17% 0.00in /  0mm WeatherDisplay:10.37 W/m2 CLR
11:24 95.0 °F /  35 °C 40.1 °F /  4.5 °C 29.77in /  1008hPa Calm     15% 0.00in /  0mm WeatherDisplay:10.37 W/m2 CLR
11:29 95.1 °F /  35.1 °C 40.2 °F /  4.6 °C 29.77in /  1008hPa North 1.5mph /  2.4km/h 4.6mph /  7.4km/h 15% 0.00in /  0mm WeatherDisplay:10.37 W/m2 CLR
11:34 95.0 °F /  35 °C 40.1 °F /  4.5 °C 29.77in /  1008hPa North 0.3mph /  0.5km/h 7.0mph /  11.3km/h 15% 0.00in /  0mm WeatherDisplay:10.37 W/m2 CLR
11:39 94.6 °F /  34.8 °C 39.8 °F /  4.3 °C 29.77in /  1008hPa Calm     15% 0.00in /  0mm WeatherDisplay:10.37 W/m2 CLR
11:44 94.9 °F /  34.9 °C 36.4 °F /  2.4 °C 29.76in /  1007.7hPa Calm     13% 0.00in /  0mm WeatherDisplay:10.37 W/m2 CLR
11:49 95.2 °F /  35.1 °C 38.5 °F /  3.6 °C 29.76in /  1007.7hPa Calm     14% 0.00in /  0mm WeatherDisplay:10.37 W/m2 CLR
11:54 95.5 °F /  35.3 °C 42.2 °F /  5.7 °C 29.76in /  1007.7hPa Calm     16% 0.00in /  0mm WeatherDisplay:10.37 W/m2 CLR
11:59 95.7 °F /  35.4 °C 40.7 °F /  4.8 °C 29.75in /  1007.3hPa Calm     15% 0.00in /  0mm WeatherDisplay:10.37 W/m2 CLR
12:04 96.0 °F /  35.6 °C 40.9 °F /  4.9 °C 29.75in /  1007.3hPa Calm     15% 0.00in /  0mm WeatherDisplay:10.37 W/m2 CLR
12:09 96.2 °F /  35.7 °C 41.1 °F /  5.1 °C 29.75in /  1007.3hPa Calm     15% 0.00in /  0mm WeatherDisplay:10.37 W/m2 CLR
12:14 95.8 °F /  35.4 °C 40.7 °F /  4.8 °C 29.75in /  1007.3hPa North 0.4mph /  0.6km/h 5.0mph /  8km/h 15% 0.00in /  0mm WeatherDisplay:10.37 W/m2 CLR
12:19 96.3 °F /  35.7 °C 41.1 °F /  5.1 °C 29.75in /  1007.3hPa North 0.7mph /  1.1km/h 3.5mph /  5.6km/h 15% 0.00in /  0mm WeatherDisplay:10.37 W/m2 CLR
12:24 96.6 °F /  35.9 °C 37.7 °F /  3.2 °C 29.75in /  1007.3hPa Calm     13% 0.00in /  0mm WeatherDisplay:10.37 W/m2 CLR
12:29 96.9 °F /  36.1 °C 37.9 °F /  3.3 °C 29.75in /  1007.3hPa NE 4.6mph /  7.4km/h 11.5mph /  18.5km/h 13% 0.00in /  0mm WeatherDisplay:10.37 W/m2 CLR
12:34 97.6 °F /  36.4 °C 38.5 °F /  3.6 °C 29.75in /  1007.3hPa Calm     13% 0.00in /  0mm WeatherDisplay:10.37 W/m2 CLR
12:39 97.8 °F /  36.6 °C 38.6 °F /  3.7 °C 29.75in /  1007.3hPa Calm     13% 0.00in /  0mm WeatherDisplay:10.37 W/m2 CLR
12:44 98.0 °F /  36.7 °C 38.8 °F /  3.8 °C 29.75in /  1007.3hPa Calm     13% 0.00in /  0mm WeatherDisplay:10.37 W/m2 CLR
12:49 97.6 °F /  36.4 °C 36.4 °F /  2.4 °C 29.75in /  1007.3hPa NE 4.6mph /  7.4km/h 11.5mph /  18.5km/h 12% 0.00in /  0mm WeatherDisplay:10.37 W/m2 CLR
12:54 97.9 °F /  36.6 °C 34.5 °F /  1.4 °C 29.75in /  1007.3hPa Calm     11% 0.00in /  0mm WeatherDisplay:10.37 W/m2 CLR
12:59 98.4 °F /  36.9 °C 34.9 °F /  1.6 °C 29.74in /  1007hPa NE 3.0mph /  4.8km/h 8.1mph /  13km/h 11% 0.00in /  0mm WeatherDisplay:10.37 W/m2 CLR
13:04 97.8 °F /  36.6 °C 36.6 °F /  2.6 °C 29.74in /  1007hPa Calm     12% 0.00in /  0mm WeatherDisplay:10.37 W/m2 CLR
13:09 98.5 °F /  36.9 °C 37.1 °F /  2.8 °C 29.74in /  1007hPa NE 1.7mph /  2.7km/h 5.8mph /  9.3km/h 12% 0.00in /  0mm WeatherDisplay:10.37 W/m2 CLR
13:14 98.9 °F /  37.2 °C 37.4 °F /  3 °C 29.74in /  1007hPa NE 0.2mph /  0.3km/h 2.3mph /  3.7km/h 12% 0.00in /  0mm WeatherDisplay:10.37 W/m2 CLR
13:19 98.8 °F /  37.1 °C 37.4 °F /  3 °C 29.74in /  1007hPa NE 1.6mph /  2.6km/h 5.8mph /  9.3km/h 12% 0.00in /  0mm WeatherDisplay:10.37 W/m2 CLR
13:24 98.0 °F /  36.7 °C 36.7 °F /  2.6 °C 29.74in /  1007hPa Calm     12% 0.00in /  0mm WeatherDisplay:10.37 W/m2 CLR
13:29 98.6 °F /  37 °C 39.3 °F /  4.1 °C 29.73in /  1006.7hPa Calm     13% 0.00in /  0mm WeatherDisplay:10.37 W/m2 CLR
13:34 98.2 °F /  36.8 °C 36.9 °F /  2.7 °C 29.73in /  1006.7hPa Calm     12% 0.00in /  0mm WeatherDisplay:10.37 W/m2 CLR
13:39 98.5 °F /  36.9 °C 37.1 °F /  2.8 °C 29.73in /  1006.7hPa Calm     12% 0.00in /  0mm WeatherDisplay:10.37 W/m2 CLR
13:44 99.9 °F /  37.7 °C 40.3 °F /  4.6 °C 29.72in /  1006.3hPa NE 2.9mph /  4.7km/h 5.8mph /  9.3km/h 13% 0.00in /  0mm WeatherDisplay:10.37 W/m2 CLR
13:49 99.6 °F /  37.6 °C 35.8 °F /  2.1 °C 29.72in /  1006.3hPa NE 0.7mph /  1.1km/h 4.6mph /  7.4km/h 11% 0.00in /  0mm WeatherDisplay:10.37 W/m2 CLR
13:54 98.7 °F /  37.1 °C 35.1 °F /  1.7 °C 29.72in /  1006.3hPa Calm     11% 0.00in /  0mm WeatherDisplay:10.37 W/m2 CLR
13:59 98.1 °F /  36.7 °C 38.9 °F /  3.8 °C 29.72in /  1006.3hPa Calm     13% 0.00in /  0mm WeatherDisplay:10.37 W/m2 CLR
14:04 98.4 °F /  36.9 °C 34.9 °F /  1.6 °C 29.72in /  1006.3hPa NE 1.1mph /  1.8km/h 5.8mph /  9.3km/h 11% 0.00in /  0mm WeatherDisplay:10.37 W/m2 SCT
14:09 99.4 °F /  37.4 °C 37.8 °F /  3.2 °C 29.72in /  1006.3hPa Calm     12% 0.00in /  0mm WeatherDisplay:10.37 W/m2 SCT
14:14 99.2 °F /  37.3 °C 37.7 °F /  3.2 °C 29.72in /  1006.3hPa Calm     12% 0.00in /  0mm WeatherDisplay:10.37 W/m2 SCT
14:19 99.4 °F /  37.4 °C 37.8 °F /  3.2 °C 29.72in /  1006.3hPa Calm     12% 0.00in /  0mm WeatherDisplay:10.37 W/m2 SCT
14:24 100.3 °F /  37.9 °C 36.3 °F /  2.4 °C 29.72in /  1006.3hPa NE 1.0mph /  1.6km/h 5.8mph /  9.3km/h 11% 0.00in /  0mm WeatherDisplay:10.37 W/m2 SCT
14:29 99.4 °F /  37.4 °C 35.6 °F /  2 °C 29.72in /  1006.3hPa Calm     11% 0.00in /  0mm WeatherDisplay:10.37 W/m2 SCT
14:34 99.1 °F /  37.3 °C 37.6 °F /  3.1 °C 29.72in /  1006.3hPa Calm     12% 0.00in /  0mm WeatherDisplay:10.37 W/m2 SCT
14:39 100.0 °F /  37.8 °C 36.1 °F /  2.3 °C 29.72in /  1006.3hPa NE 3.3mph /  5.3km/h 8.1mph /  13km/h 11% 0.00in /  0mm WeatherDisplay:10.37 W/m2 SCT
14:44 100.3 °F /  37.9 °C 36.3 °F /  2.4 °C 29.72in /  1006.3hPa Calm     11% 0.00in /  0mm WeatherDisplay:10.37 W/m2 SCT
14:49 100.0 °F /  37.8 °C 33.7 °F /  0.9 °C 29.72in /  1006.3hPa Calm     10% 0.00in /  0mm WeatherDisplay:10.37 W/m2 SCT
14:54 100.7 °F /  38.2 °C 36.6 °F /  2.6 °C 29.72in /  1006.3hPa Calm   1.2mph /  1.9km/h 11% 0.00in /  0mm WeatherDisplay:10.37 W/m2 SCT
14:59 100.8 °F /  38.2 °C 34.3 °F /  1.3 °C 29.71in /  1006hPa Calm   3.5mph /  5.6km/h 10% 0.00in /  0mm WeatherDisplay:10.37 W/m2 SCT
15:04 100.5 °F /  38.1 °C 31.4 °F /  -0.3 °C 29.71in /  1006hPa Calm     9% 0.00in /  0mm WeatherDisplay:10.37 W/m2 CLR
15:09 100.6 °F /  38.1 °C 36.5 °F /  2.5 °C 29.71in /  1006hPa ENE 4.6mph /  7.4km/h 11.5mph /  18.5km/h 11% 0.00in /  0mm WeatherDisplay:10.37 W/m2 CLR
15:14 100.6 °F /  38.1 °C 36.5 °F /  2.5 °C 29.71in /  1006hPa Calm     11% 0.00in /  0mm WeatherDisplay:10.37 W/m2 CLR
15:19 100.1 °F /  37.8 °C 36.1 °F /  2.3 °C 29.71in /  1006hPa Calm     11% 0.00in /  0mm WeatherDisplay:10.37 W/m2 CLR
15:24 99.5 °F /  37.5 °C 35.7 °F /  2.1 °C 29.71in /  1006hPa Calm     11% 0.00in /  0mm WeatherDisplay:10.37 W/m2 CLR
15:29 100.2 °F /  37.9 °C 36.2 °F /  2.3 °C 29.71in /  1006hPa ENE 5.6mph /  9km/h 10.4mph /  16.7km/h 11% 0.00in /  0mm WeatherDisplay:10.37 W/m2 CLR
15:34 100.3 °F /  37.9 °C 33.9 °F /  1.1 °C 29.71in /  1006hPa Calm     10% 0.00in /  0mm WeatherDisplay:10.37 W/m2 CLR
15:39 100.0 °F /  37.8 °C 38.3 °F /  3.5 °C 29.71in /  1006hPa ENE 2.5mph /  4km/h 8.1mph /  13km/h 12% 0.00in /  0mm WeatherDisplay:10.37 W/m2 CLR
15:44 100.3 °F /  37.9 °C 36.3 °F /  2.4 °C 29.70in /  1005.6hPa East 4.8mph /  7.7km/h 10.4mph /  16.7km/h 11% 0.00in /  0mm WeatherDisplay:10.37 W/m2 CLR
15:49 100.5 °F /  38.1 °C 36.5 °F /  2.5 °C 29.70in /  1005.6hPa East 4.3mph /  6.9km/h 10.4mph /  16.7km/h 11% 0.00in /  0mm WeatherDisplay:10.37 W/m2 CLR
15:54 100.2 °F /  37.9 °C 33.8 °F /  1 °C 29.70in /  1005.6hPa East 3.6mph /  5.8km/h 11.5mph /  18.5km/h 10% 0.00in /  0mm WeatherDisplay:10.37 W/m2 CLR
15:59 100.3 °F /  37.9 °C 33.9 °F /  1.1 °C 29.69in /  1005.3hPa ENE 3.9mph /  6.3km/h 16.1mph /  25.9km/h 10% 0.00in /  0mm WeatherDisplay:10.37 W/m2 CLR
16:04 100.6 °F /  38.1 °C 34.1 °F /  1.2 °C 29.69in /  1005.3hPa ENE 2.4mph /  3.9km/h 9.2mph /  14.8km/h 10% 0.00in /  0mm WeatherDisplay:10.37 W/m2 CLR
16:09 99.5 °F /  37.5 °C 33.3 °F /  0.7 °C 29.69in /  1005.3hPa ENE 1.2mph /  1.9km/h 5.8mph /  9.3km/h 10% 0.00in /  0mm WeatherDisplay:10.37 W/m2 CLR
16:14 100.0 °F /  37.8 °C 33.7 °F /  0.9 °C 29.70in /  1005.6hPa ENE 0.4mph /  0.6km/h 4.6mph /  7.4km/h 10% 0.00in /  0mm WeatherDisplay:10.37 W/m2 CLR
16:19 100.0 °F /  37.8 °C 36.1 °F /  2.3 °C 29.70in /  1005.6hPa Calm     11% 0.00in /  0mm WeatherDisplay:10.37 W/m2 CLR
16:24 100.1 °F /  37.8 °C 36.1 °F /  2.3 °C 29.70in /  1005.6hPa ENE 5.2mph /  8.4km/h 9.2mph /  14.8km/h 11% 0.00in /  0mm WeatherDisplay:10.37 W/m2 CLR
16:29 99.8 °F /  37.7 °C 35.9 °F /  2.2 °C 29.70in /  1005.6hPa ENE 1.5mph /  2.4km/h 9.2mph /  14.8km/h 11% 0.00in /  0mm WeatherDisplay:10.37 W/m2 CLR
16:34 99.4 °F /  37.4 °C 35.6 °F /  2 °C 29.70in /  1005.6hPa Calm   1.2mph /  1.9km/h 11% 0.00in /  0mm WeatherDisplay:10.37 W/m2 CLR
16:39 100.0 °F /  37.8 °C 36.1 °F /  2.3 °C 29.70in /  1005.6hPa Calm     11% 0.00in /  0mm WeatherDisplay:10.37 W/m2 CLR
16:44 99.9 °F /  37.7 °C 33.6 °F /  0.9 °C 29.69in /  1005.3hPa Calm     10% 0.00in /  0mm WeatherDisplay:10.37 W/m2 CLR
16:49 99.8 °F /  37.7 °C 35.9 °F /  2.2 °C 29.69in /  1005.3hPa Calm     11% 0.00in /  0mm WeatherDisplay:10.37 W/m2 CLR
16:54 99.9 °F /  37.7 °C 33.6 °F /  0.9 °C 29.69in /  1005.3hPa Calm     10% 0.00in /  0mm WeatherDisplay:10.37 W/m2 CLR
16:59 99.7 °F /  37.6 °C 33.4 °F /  0.8 °C 29.68in /  1005hPa Calm     10% 0.00in /  0mm WeatherDisplay:10.37 W/m2 CLR
17:04 99.2 °F /  37.3 °C 33.1 °F /  0.6 °C 29.68in /  1005hPa ENE 6.1mph /  9.8km/h 12.7mph /  20.4km/h 10% 0.00in /  0mm WeatherDisplay:10.37 W/m2 CLR
17:09 99.0 °F /  37.2 °C 30.3 °F /  -0.9 °C 29.68in /  1005hPa ENE 0.8mph /  1.3km/h 8.1mph /  13km/h 9% 0.00in /  0mm WeatherDisplay:10.37 W/m2 CLR
17:14 98.9 °F /  37.2 °C 32.8 °F /  0.4 °C 29.68in /  1005hPa Calm     10% 0.00in /  0mm WeatherDisplay:10.37 W/m2 CLR
17:19 98.8 °F /  37.1 °C 35.2 °F /  1.8 °C 29.68in /  1005hPa Calm     11% 0.00in /  0mm WeatherDisplay:10.37 W/m2 CLR
17:24 98.9 °F /  37.2 °C 32.8 °F /  0.4 °C 29.68in /  1005hPa Calm     10% 0.00in /  0mm WeatherDisplay:10.37 W/m2 CLR
17:29 98.8 °F /  37.1 °C 32.8 °F /  0.4 °C 29.68in /  1005hPa ENE 5.4mph /  8.7km/h 8.1mph /  13km/h 10% 0.00in /  0mm WeatherDisplay:10.37 W/m2 CLR
17:34 98.5 °F /  36.9 °C 32.5 °F /  0.3 °C 29.68in /  1005hPa ENE 0.3mph /  0.5km/h 8.1mph /  13km/h 10% 0.00in /  0mm WeatherDisplay:10.37 W/m2 CLR
17:39 98.6 °F /  37 °C 32.6 °F /  0.3 °C 29.68in /  1005hPa ENE 2.2mph /  3.5km/h 7.0mph /  11.3km/h 10% 0.00in /  0mm WeatherDisplay:10.37 W/m2 CLR
17:44 98.3 °F /  36.8 °C 32.4 °F /  0.2 °C 29.68in /  1005hPa ENE 1.9mph /  3.1km/h 9.2mph /  14.8km/h 10% 0.00in /  0mm WeatherDisplay:10.37 W/m2 CLR
17:49 97.9 °F /  36.6 °C 32.1 °F /  0.1 °C 29.68in /  1005hPa Calm     10% 0.00in /  0mm WeatherDisplay:10.37 W/m2 CLR
17:54 97.7 °F /  36.5 °C 31.9 °F /  -0.1 °C 29.68in /  1005hPa ENE 3.3mph /  5.3km/h 8.0mph /  12.9km/h 10% 0.00in /  0mm WeatherDisplay:10.37 W/m2 CLR
17:59 97.4 °F /  36.3 °C 31.7 °F /  -0.2 °C 29.68in /  1005hPa Calm     10% 0.00in /  0mm WeatherDisplay:10.37 W/m2 CLR
18:04 97.0 °F /  36.1 °C 33.8 °F /  1 °C 29.68in /  1005hPa Calm     11% 0.00in /  0mm WeatherDisplay:10.37 W/m2 CLR
18:09 96.9 °F /  36.1 °C 31.3 °F /  -0.4 °C 29.68in /  1005hPa Calm     10% 0.00in /  0mm WeatherDisplay:10.37 W/m2 CLR
18:14 97.1 °F /  36.2 °C 31.5 °F /  -0.3 °C 29.67in /  1004.6hPa Calm     10% 0.00in /  0mm WeatherDisplay:10.37 W/m2 CLR
18:19 96.9 °F /  36.1 °C 31.3 °F /  -0.4 °C 29.67in /  1004.6hPa Calm     10% 0.00in /  0mm WeatherDisplay:10.37 W/m2 CLR
18:24 96.5 °F /  35.8 °C 31.0 °F /  -0.6 °C 29.67in /  1004.6hPa ENE 5.1mph /  8.2km/h 10.4mph /  16.7km/h 10% 0.00in /  0mm WeatherDisplay:10.37 W/m2 CLR
18:29 96.6 °F /  35.9 °C 33.5 °F /  0.8 °C 29.68in /  1005hPa Calm     11% 0.00in /  0mm WeatherDisplay:10.37 W/m2 CLR
18:34 96.4 °F /  35.8 °C 33.3 °F /  0.7 °C 29.68in /  1005hPa Calm     11% 0.00in /  0mm WeatherDisplay:10.37 W/m2 CLR
18:39 96.2 °F /  35.7 °C 33.2 °F /  0.7 °C 29.68in /  1005hPa Calm     11% 0.00in /  0mm WeatherDisplay:10.37 W/m2 CLR
18:44 96.0 °F /  35.6 °C 33.0 °F /  0.6 °C 29.68in /  1005hPa Calm     11% 0.00in /  0mm WeatherDisplay:10.37 W/m2 CLR
18:49 95.7 °F /  35.4 °C 32.8 °F /  0.4 °C 29.68in /  1005hPa Calm     11% 0.00in /  0mm WeatherDisplay:10.37 W/m2 CLR
18:54 95.6 °F /  35.3 °C 32.7 °F /  0.4 °C 29.68in /  1005hPa Calm     11% 0.00in /  0mm WeatherDisplay:10.37 W/m2 CLR
18:59 95.2 °F /  35.1 °C 34.6 °F /  1.4 °C 29.68in /  1005hPa Calm     12% 0.00in /  0mm WeatherDisplay:10.37 W/m2 CLR
19:04 95.1 °F /  35.1 °C 34.5 °F /  1.4 °C 29.68in /  1005hPa Calm     12% 0.00in /  0mm WeatherDisplay:10.37 W/m2 CLR
19:09 94.7 °F /  34.8 °C 34.2 °F /  1.2 °C 29.68in /  1005hPa Calm     12% 0.00in /  0mm WeatherDisplay:10.37 W/m2 CLR
19:14 94.5 °F /  34.7 °C 39.7 °F /  4.3 °C 29.67in /  1004.6hPa Calm     15% 0.00in /  0mm WeatherDisplay:10.37 W/m2 CLR
19:19 92.4 °F /  33.6 °C 46.8 °F /  8.2 °C 29.67in /  1004.6hPa Calm     21% 0.00in /  0mm WeatherDisplay:10.37 W/m2 CLR
19:24 89.8 °F /  32.1 °C 47.1 °F /  8.4 °C 29.67in /  1004.6hPa Calm     23% 0.00in /  0mm WeatherDisplay:10.37 W/m2 CLR
19:29 89.1 °F /  31.7 °C 41.5 °F /  5.3 °C 29.68in /  1005hPa Calm     19% 0.00in /  0mm WeatherDisplay:10.37 W/m2 CLR
19:34 89.5 °F /  31.9 °C 43.1 °F /  6.2 °C 29.68in /  1005hPa Calm     20% 0.00in /  0mm WeatherDisplay:10.37 W/m2 CLR
19:39 89.3 °F /  31.8 °C 40.2 °F /  4.6 °C 29.68in /  1005hPa Calm     18% 0.00in /  0mm WeatherDisplay:10.37 W/m2 CLR
19:44 89.3 °F /  31.8 °C 38.8 °F /  3.8 °C 29.68in /  1005hPa Calm     17% 0.00in /  0mm WeatherDisplay:10.37 W/m2 CLR
19:49 89.7 °F /  32.1 °C 37.5 °F /  3.1 °C 29.68in /  1005hPa Calm     16% 0.00in /  0mm WeatherDisplay:10.37 W/m2 CLR
19:54 89.0 °F /  31.7 °C 38.5 °F /  3.6 °C 29.68in /  1005hPa Calm     17% 0.00in /  0mm WeatherDisplay:10.37 W/m2 CLR
19:59 88.4 °F /  31.3 °C 39.5 °F /  4.2 °C 29.68in /  1005hPa Calm     18% 0.00in /  0mm WeatherDisplay:10.37 W/m2 CLR
20:04 88.3 °F /  31.3 °C 36.4 °F /  2.4 °C 29.68in /  1005hPa Calm     16% 0.00in /  0mm WeatherDisplay:10.37 W/m2 CLR
20:09 88.4 °F /  31.3 °C 36.5 °F /  2.5 °C 29.68in /  1005hPa Calm     16% 0.00in /  0mm WeatherDisplay:10.37 W/m2 CLR
20:14 88.2 °F /  31.2 °C 36.3 °F /  2.4 °C 29.68in /  1005hPa Calm     16% 0.00in /  0mm WeatherDisplay:10.37 W/m2 CLR
20:19 87.9 °F /  31.1 °C 36.1 °F /  2.3 °C 29.68in /  1005hPa Calm     16% 0.00in /  0mm WeatherDisplay:10.37 W/m2 CLR
20:24 87.7 °F /  30.9 °C 35.9 °F /  2.2 °C 29.68in /  1005hPa Calm     16% 0.00in /  0mm WeatherDisplay:10.37 W/m2 CLR
20:29 87.6 °F /  30.9 °C 37.4 °F /  3 °C 29.68in /  1005hPa Calm     17% 0.00in /  0mm WeatherDisplay:10.37 W/m2 CLR
20:34 87.0 °F /  30.6 °C 36.9 °F /  2.7 °C 29.68in /  1005hPa Calm     17% 0.00in /  0mm WeatherDisplay:10.37 W/m2 CLR
20:39 86.6 °F /  30.3 °C 36.6 °F /  2.6 °C 29.68in /  1005hPa Calm     17% 0.00in /  0mm WeatherDisplay:10.37 W/m2 CLR
20:44 86.3 °F /  30.2 °C 34.8 °F /  1.6 °C 29.69in /  1005.3hPa Calm     16% 0.00in /  0mm WeatherDisplay:10.37 W/m2 CLR
20:49 86.1 °F /  30.1 °C 36.2 °F /  2.3 °C 29.69in /  1005.3hPa Calm     17% 0.00in /  0mm WeatherDisplay:10.37 W/m2 CLR
20:54 85.8 °F /  29.9 °C 37.4 °F /  3 °C 29.69in /  1005.3hPa Calm     18% 0.00in /  0mm WeatherDisplay:10.37 W/m2 CLR
20:59 85.4 °F /  29.7 °C 37.1 °F /  2.8 °C 29.69in /  1005.3hPa Calm     18% 0.00in /  0mm WeatherDisplay:10.37 W/m2 CLR
21:04 85.2 °F /  29.6 °C 36.9 °F /  2.7 °C 29.69in /  1005.3hPa Calm     18% 0.00in /  0mm WeatherDisplay:10.37 W/m2 CLR
21:09 84.9 °F /  29.4 °C 36.7 °F /  2.6 °C 29.69in /  1005.3hPa Calm     18% 0.00in /  0mm WeatherDisplay:10.37 W/m2 CLR
21:14 84.6 °F /  29.2 °C 35.0 °F /  1.7 °C 29.69in /  1005.3hPa Calm     17% 0.00in /  0mm WeatherDisplay:10.37 W/m2 CLR
21:19 84.1 °F /  28.9 °C 36.0 °F /  2.2 °C 29.69in /  1005.3hPa Calm     18% 0.00in /  0mm WeatherDisplay:10.37 W/m2 CLR
21:24 83.5 °F /  28.6 °C 36.9 °F /  2.7 °C 29.69in /  1005.3hPa Calm     19% 0.00in /  0mm WeatherDisplay:10.37 W/m2 CLR
21:29 82.9 °F /  28.3 °C 37.7 °F /  3.2 °C 29.69in /  1005.3hPa Calm     20% 0.00in /  0mm WeatherDisplay:10.37 W/m2 CLR
21:34 82.7 °F /  28.2 °C 37.5 °F /  3.1 °C 29.69in /  1005.3hPa Calm     20% 0.00in /  0mm WeatherDisplay:10.37 W/m2 CLR
Youngtown, Arizona, USA
Compliments of Weather Underground - 3.75 mb